Pagrindinis puslapis
METAR-TAF:

METAR-TAF

Oro uostai :

Vidsel, Švedija

platuma: 65-52N, ilguma: 020-08E, Aukštis: 180 m

Dabartinis oras

Ataskaita buvo paskelbta 19 minutes, ne 14:20 UTC
Vėjas 12 kt iš Šiaurės/Šiaurės Rytų, svyruoja nuo Šiaurės ir Šiaurės Rytų
Temperatūra 1°C
Drėgmė 25%
Slėgis 1018 hPa
Matomumas 10 km arba daugiau

METAR: ESPE 201420Z AUTO 02012KT 350V050 9999 NCD 01/M17 Q1018

Laikas: 16:39 (14:39 UTC)


TAF: trūkstamas

Orai ataskaitas ir orų prognozės (METAR, TAF).

turimą stotys yra geltonos ir raudonos taškus žemėlapyje.

Perkelti pele per norėdami pamatyti stoties vardą.

Tada spustelėkite, norėdami matyti oro stebėjimo ir prognozės.

Norėdami pakeisti žemėlapį: spustelėkite ant žalios mygtukų su juodo kryžiaus žemyn,; žalią mygtuką su brūkšneliu, jei norite nutolinti; arba žalių rodyklių gretimoms žemėlapius.


METAR-TAF: